Lyman, Nebraska
Current Conditions -  °F | °C
As of 12:53 AM on Friday 28 Nov 2014 (Local Time) from KTOR Reporting Station
Clear Clear  
Wind Chill: 54°   Ceiling: Unl
Heat Index: 54°   Visibility: 10mi
Dew Point: 22°   Wind: 3mph
Humidity: 29%   Direction: 260°W
Pressure: 29.89"   Gusts: NA
Location:  41.92°N, 104.04°W
Report Text: KTOR 280753Z AUTO 26003KT 10SM CLR 12/M06 A2989 RMK AO2 SLP097 T01221056 $
Loading
Personal Weather Stations






























Interactive Weather Map New forecast layout! Learn more

10-Day Weather Forecast

Advertisements
Track Severe Weather on mobile